createdAt,value
2017-11-19T00:00:58.434Z,14.82
2017-11-19T00:03:26.741Z,13.27
2017-11-19T00:05:54.272Z,13.18
2017-11-19T00:08:21.849Z,13.18
2017-11-19T00:10:50.148Z,14.13
2017-11-19T00:13:17.687Z,14.65
2017-11-19T00:15:46.025Z,12.80
2017-11-19T00:18:13.568Z,14.30
2017-11-19T00:20:41.105Z,13.93
2017-11-19T00:23:08.661Z,12.48
2017-11-19T00:25:36.192Z,11.93
2017-11-19T00:28:04.496Z,11.02
2017-11-19T00:30:32.059Z,11.20
2017-11-19T00:32:59.597Z,11.15
2017-11-19T00:35:27.139Z,11.38
2017-11-19T00:37:55.606Z,9.10
2017-11-19T00:40:23.155Z,11.48
2017-11-19T00:42:51.449Z,10.35
2017-11-19T00:45:19.783Z,10.55
2017-11-19T00:47:47.334Z,10.27
2017-11-19T00:50:14.889Z,9.05
2017-11-19T00:52:42.448Z,9.52
2017-11-19T00:55:09.991Z,8.30
2017-11-19T00:57:37.543Z,10.27
2017-11-19T01:00:05.103Z,10.23
2017-11-19T01:02:32.653Z,8.93
2017-11-19T01:05:00.960Z,8.40
2017-11-19T01:07:28.531Z,10.48
2017-11-19T01:09:56.074Z,10.13
2017-11-19T01:12:23.616Z,11.70
2017-11-19T01:14:51.197Z,10.75
2017-11-19T01:17:18.761Z,10.85
2017-11-19T01:19:46.312Z,11.73
2017-11-19T01:22:13.883Z,12.85
2017-11-19T01:24:41.430Z,12.55
2017-11-19T01:27:08.971Z,10.48
2017-11-19T01:29:36.538Z,13.18
2017-11-19T01:32:04.094Z,14.80
2017-11-19T01:34:31.639Z,13.32
2017-11-19T01:36:59.974Z,12.10
2017-11-19T01:39:27.619Z,13.35
2017-11-19T01:41:55.197Z,13.90
2017-11-19T01:44:22.836Z,11.43
2017-11-19T01:46:50.379Z,11.43
2017-11-19T01:49:17.966Z,11.88
2017-11-19T01:51:45.516Z,13.95
2017-11-19T01:54:13.190Z,12.37
2017-11-19T01:56:40.755Z,13.43
2017-11-19T01:59:08.303Z,10.85
2017-11-19T02:01:35.827Z,10.70
2017-11-19T02:04:03.393Z,12.35
2017-11-19T02:06:30.926Z,11.57
2017-11-19T02:08:59.246Z,12.07
2017-11-19T02:11:26.797Z,13.60
2017-11-19T02:13:54.343Z,12.70
2017-11-19T02:16:21.917Z,11.23
2017-11-19T02:18:49.476Z,13.50
2017-11-19T02:21:17.061Z,12.00
2017-11-19T02:23:44.682Z,13.80
2017-11-19T02:26:12.219Z,13.02
2017-11-19T02:28:40.557Z,13.30
2017-11-19T02:31:08.187Z,13.57
2017-11-19T02:33:35.749Z,13.70
2017-11-19T02:36:03.325Z,13.62
2017-11-19T02:38:30.872Z,12.07
2017-11-19T02:40:58.436Z,12.60
2017-11-19T02:43:25.962Z,12.88
2017-11-19T02:45:54.281Z,13.05
2017-11-19T02:48:21.827Z,10.70
2017-11-19T02:50:49.369Z,11.75
2017-11-19T02:53:16.929Z,11.50
2017-11-19T02:55:45.225Z,12.05
2017-11-19T02:58:12.809Z,11.75
2017-11-19T03:00:40.352Z,11.35
2017-11-19T03:03:07.897Z,10.43
2017-11-19T03:05:35.463Z,8.93
2017-11-19T03:08:03.025Z,11.02
2017-11-19T03:10:30.591Z,9.70
2017-11-19T03:12:58.118Z,9.95
2017-11-19T03:15:25.666Z,10.60
2017-11-19T03:17:53.228Z,8.05
2017-11-19T03:20:20.767Z,9.52
2017-11-19T03:22:48.355Z,9.80
2017-11-19T03:25:15.938Z,9.85
2017-11-19T03:27:43.475Z,9.48
2017-11-19T03:30:11.065Z,9.88
2017-11-19T03:32:38.607Z,9.20
2017-11-19T03:35:06.272Z,9.93
2017-11-19T03:37:33.796Z,9.65
2017-11-19T03:40:02.103Z,9.27
2017-11-19T03:42:29.661Z,9.75
2017-11-19T03:44:57.187Z,8.32
2017-11-19T03:47:25.515Z,9.55
2017-11-19T03:49:53.060Z,8.20
2017-11-19T03:52:20.598Z,8.52
2017-11-19T03:54:48.168Z,9.98
2017-11-19T03:57:15.702Z,9.35
2017-11-19T03:59:44.049Z,7.95
2017-11-19T04:02:11.624Z,11.07
2017-11-19T04:04:39.955Z,9.70
2017-11-19T04:07:07.515Z,9.93
2017-11-19T04:09:35.055Z,8.93
2017-11-19T04:12:02.628Z,9.70
2017-11-19T04:14:30.167Z,9.73
2017-11-19T04:16:57.722Z,9.25
2017-11-19T04:19:25.272Z,10.07
2017-11-19T04:21:53.575Z,9.70
2017-11-19T04:24:21.158Z,9.90
2017-11-19T04:26:48.699Z,10.50
2017-11-19T04:29:16.263Z,9.90
2017-11-19T04:31:43.804Z,9.38
2017-11-19T04:34:11.347Z,10.20
2017-11-19T04:36:39.697Z,9.00
2017-11-19T04:39:07.239Z,9.50
2017-11-19T04:41:34.781Z,10.57
2017-11-19T04:44:02.353Z,8.30
2017-11-19T04:46:29.899Z,9.15
2017-11-19T04:48:57.445Z,9.80
2017-11-19T04:51:24.982Z,9.75
2017-11-19T04:53:52.508Z,9.65
2017-11-19T04:56:20.081Z,8.63
2017-11-19T04:58:48.376Z,7.95
2017-11-19T05:01:15.943Z,8.25
2017-11-19T05:03:43.484Z,7.75
2017-11-19T05:06:11.802Z,8.43
2017-11-19T05:08:39.359Z,8.20
2017-11-19T05:11:06.886Z,7.95
2017-11-19T05:13:35.229Z,7.30
2017-11-19T05:16:02.785Z,7.37
2017-11-19T05:18:30.312Z,7.18
2017-11-19T05:20:57.870Z,6.43
2017-11-19T05:23:25.400Z,7.12
2017-11-19T05:25:52.956Z,7.25
2017-11-19T05:28:21.259Z,6.55
2017-11-19T05:30:48.817Z,7.47
2017-11-19T05:33:16.371Z,6.18
2017-11-19T05:35:43.915Z,6.87
2017-11-19T05:38:11.499Z,6.40
2017-11-19T05:40:39.047Z,7.30
2017-11-19T05:43:06.586Z,8.70
2017-11-19T05:45:34.897Z,7.43
2017-11-19T05:48:02.426Z,7.03
2017-11-19T05:50:29.991Z,6.57
2017-11-19T05:52:57.528Z,7.93
2017-11-19T05:55:25.839Z,6.87
2017-11-19T05:57:53.399Z,6.40
2017-11-19T06:00:20.941Z,6.50
2017-11-19T06:02:48.508Z,7.50
2017-11-19T06:05:16.047Z,7.22
2017-11-19T06:07:44.356Z,7.70
2017-11-19T06:10:11.896Z,7.22
2017-11-19T06:12:39.455Z,6.87
2017-11-19T06:15:07.044Z,6.25
2017-11-19T06:17:34.586Z,7.18
2017-11-19T06:20:02.146Z,6.68
2017-11-19T06:22:29.704Z,7.50
2017-11-19T06:24:57.254Z,9.88
2017-11-19T06:27:24.801Z,9.02
2017-11-19T06:29:52.347Z,9.80
2017-11-19T06:32:20.655Z,8.93
2017-11-19T06:34:48.210Z,10.07
2017-11-19T06:37:15.773Z,10.27
2017-11-19T06:39:43.330Z,7.75
2017-11-19T06:42:10.870Z,9.40
2017-11-19T06:44:39.168Z,8.20
2017-11-19T06:47:06.753Z,7.80
2017-11-19T06:49:34.295Z,7.70
2017-11-19T06:52:01.845Z,7.90
2017-11-19T06:54:29.398Z,7.00
2017-11-19T06:56:56.949Z,7.68
2017-11-19T06:59:25.275Z,7.37
2017-11-19T07:01:52.816Z,8.48
2017-11-19T07:04:20.384Z,10.50
2017-11-19T07:06:47.949Z,10.13
2017-11-19T07:09:15.498Z,8.63
2017-11-19T07:11:43.059Z,9.30
2017-11-19T07:14:10.589Z,8.88
2017-11-19T07:16:38.169Z,9.05
2017-11-19T07:19:05.723Z,7.55
2017-11-19T07:21:33.289Z,6.28
2017-11-19T07:24:00.831Z,7.72
2017-11-19T07:26:28.408Z,7.45
2017-11-19T07:28:55.951Z,5.12
2017-11-19T07:31:23.488Z,3.83
2017-11-19T07:33:51.818Z,4.37
2017-11-19T07:36:19.353Z,4.45
2017-11-19T07:38:46.924Z,5.60
2017-11-19T07:41:14.453Z,4.07
2017-11-19T07:43:42.007Z,4.68
2017-11-19T07:46:09.566Z,5.22
2017-11-19T07:48:37.142Z,4.55
2017-11-19T07:51:04.788Z,4.62
2017-11-19T07:53:33.079Z,4.28
2017-11-19T07:56:00.650Z,5.22
2017-11-19T07:58:28.184Z,5.65
2017-11-19T08:00:55.735Z,5.57
2017-11-19T08:03:24.053Z,5.65
2017-11-19T08:05:51.611Z,4.20
2017-11-19T08:08:19.265Z,5.05
2017-11-19T08:10:46.832Z,3.95
2017-11-19T08:13:14.429Z,3.40
2017-11-19T08:15:42.767Z,3.83
2017-11-19T08:18:10.342Z,4.40
2017-11-19T08:20:37.877Z,3.17
2017-11-19T08:23:05.454Z,4.60
2017-11-19T08:25:33.014Z,3.70
2017-11-19T08:28:00.583Z,3.15
2017-11-19T08:30:28.132Z,3.58
2017-11-19T08:32:55.690Z,3.10
2017-11-19T08:35:23.261Z,2.72
2017-11-19T08:37:50.799Z,2.75
2017-11-19T08:40:18.375Z,6.07
2017-11-19T08:42:45.919Z,2.95
2017-11-19T08:45:13.455Z,2.70
2017-11-19T08:47:41.015Z,3.67
2017-11-19T08:50:08.575Z,2.75
2017-11-19T08:52:36.132Z,2.40
2017-11-19T08:55:03.675Z,3.85
2017-11-19T08:57:31.370Z,4.10
2017-11-19T08:59:58.933Z,3.10
2017-11-19T09:02:26.496Z,4.35
2017-11-19T09:04:54.214Z,3.85
2017-11-19T09:07:21.785Z,3.60
2017-11-19T09:09:49.351Z,4.50
2017-11-19T09:12:16.888Z,3.62
2017-11-19T09:14:45.191Z,3.12
2017-11-19T09:17:12.747Z,3.65
2017-11-19T09:19:40.441Z,3.22
2017-11-19T09:22:08.003Z,4.87
2017-11-19T09:24:35.541Z,3.60
2017-11-19T09:27:03.085Z,2.67
2017-11-19T09:29:30.655Z,2.70
2017-11-19T09:31:58.209Z,3.22
2017-11-19T09:34:25.769Z,3.50
2017-11-19T09:36:53.327Z,3.05
2017-11-19T09:39:20.874Z,3.67
2017-11-19T09:41:48.433Z,3.00
2017-11-19T09:44:15.961Z,3.33
2017-11-19T09:46:43.517Z,2.95
2017-11-19T09:49:11.075Z,3.87
2017-11-19T09:51:38.615Z,2.80
2017-11-19T09:54:06.183Z,5.55
2017-11-19T09:56:33.705Z,3.85
2017-11-19T09:59:01.250Z,3.17
2017-11-19T10:01:28.808Z,3.87
2017-11-19T10:03:56.354Z,3.92
2017-11-19T10:06:24.689Z,3.95
2017-11-19T10:08:52.249Z,4.18
2017-11-19T10:11:19.805Z,3.35
2017-11-19T10:13:47.354Z,2.75
2017-11-19T10:16:14.881Z,3.37
2017-11-19T10:18:42.433Z,4.12
2017-11-19T10:21:09.978Z,2.97
2017-11-19T10:23:38.283Z,4.05
2017-11-19T10:26:05.839Z,3.20
2017-11-19T10:28:33.384Z,3.58
2017-11-19T10:31:00.934Z,3.12
2017-11-19T10:33:29.242Z,4.95
2017-11-19T10:35:56.813Z,2.45
2017-11-19T10:38:24.345Z,4.25
2017-11-19T10:40:51.901Z,3.50
2017-11-19T10:43:19.450Z,3.70
2017-11-19T10:45:47.773Z,4.07
2017-11-19T10:48:15.302Z,3.80
2017-11-19T10:50:42.828Z,3.92
2017-11-19T10:53:11.155Z,3.80
2017-11-19T10:55:38.699Z,3.30
2017-11-19T10:58:06.259Z,3.40
2017-11-19T11:00:33.925Z,4.20
2017-11-19T11:03:01.503Z,3.20
2017-11-19T11:05:29.061Z,3.37
2017-11-19T11:07:56.614Z,3.58
2017-11-19T11:10:24.188Z,3.12
2017-11-19T11:12:51.721Z,3.33
2017-11-19T11:15:19.273Z,3.50
2017-11-19T11:17:46.819Z,3.70
2017-11-19T11:20:14.403Z,3.90
2017-11-19T11:22:41.950Z,3.45
2017-11-19T11:25:09.496Z,4.10
2017-11-19T11:27:37.078Z,2.78
2017-11-19T11:30:04.641Z,3.85
2017-11-19T11:32:32.225Z,4.95
2017-11-19T11:34:59.799Z,4.75
2017-11-19T11:37:27.381Z,4.20
2017-11-19T11:39:55.686Z,3.28
2017-11-19T11:42:23.262Z,3.83
2017-11-19T11:44:50.807Z,3.40
2017-11-19T11:47:18.375Z,3.97
2017-11-19T11:49:45.933Z,3.22
2017-11-19T11:52:13.497Z,4.03
2017-11-19T11:54:41.051Z,3.62
2017-11-19T11:57:08.640Z,3.92
2017-11-19T11:59:36.204Z,2.97
2017-11-19T12:02:03.759Z,3.22
2017-11-19T12:04:31.343Z,3.50
2017-11-19T12:06:59.670Z,3.12
2017-11-19T12:09:27.258Z,3.10
2017-11-19T12:11:54.830Z,4.45
2017-11-19T12:14:22.387Z,3.28
2017-11-19T12:16:50.716Z,3.10
2017-11-19T12:19:18.297Z,3.95
2017-11-19T12:21:45.846Z,3.78
2017-11-19T12:24:13.377Z,2.45
2017-11-19T12:26:40.967Z,4.32
2017-11-19T12:29:08.534Z,3.85
2017-11-19T12:31:36.093Z,3.00
2017-11-19T12:34:03.664Z,3.00
2017-11-19T12:36:31.192Z,2.83
2017-11-19T12:38:58.755Z,2.90
2017-11-19T12:41:26.320Z,3.37
2017-11-19T12:43:53.893Z,5.75
2017-11-19T12:46:21.457Z,2.75
2017-11-19T12:48:49.041Z,2.55
2017-11-19T12:51:16.591Z,2.80
2017-11-19T12:53:44.139Z,3.10
2017-11-19T12:56:11.692Z,2.87
2017-11-19T12:58:39.246Z,3.12
2017-11-19T13:01:06.811Z,2.65
2017-11-19T13:03:34.345Z,2.85
2017-11-19T13:06:01.915Z,3.35
2017-11-19T13:08:29.577Z,2.53
2017-11-19T13:10:57.183Z,2.90
2017-11-19T13:13:25.545Z,2.75
2017-11-19T13:15:53.095Z,3.05
2017-11-19T13:18:20.674Z,3.58
2017-11-19T13:20:49.009Z,2.65
2017-11-19T13:23:16.587Z,3.12
2017-11-19T13:25:44.122Z,3.92
2017-11-19T13:28:11.648Z,3.67
2017-11-19T13:30:40.065Z,3.35
2017-11-19T13:33:07.591Z,4.60
2017-11-19T13:35:35.277Z,3.17
2017-11-19T13:38:02.813Z,3.30
2017-11-19T13:40:30.388Z,3.62
2017-11-19T13:42:57.939Z,3.33
2017-11-19T13:45:25.527Z,3.65
2017-11-19T13:47:53.065Z,2.87
2017-11-19T13:50:20.625Z,5.03
2017-11-19T13:52:48.191Z,3.43
2017-11-19T13:55:15.736Z,3.47
2017-11-19T13:57:43.299Z,3.23
2017-11-19T14:00:10.847Z,2.50
2017-11-19T14:02:38.429Z,3.15
2017-11-19T14:05:05.975Z,2.50
2017-11-19T14:07:33.550Z,1.93
2017-11-19T14:10:01.834Z,2.53
2017-11-19T14:12:29.413Z,1.90
2017-11-19T14:14:56.960Z,1.70
2017-11-19T14:17:24.556Z,1.95
2017-11-19T14:19:52.113Z,2.15
2017-11-19T14:22:19.732Z,1.60
2017-11-19T14:24:47.331Z,1.90
2017-11-19T14:27:14.888Z,2.33
2017-11-19T14:29:43.230Z,1.80
2017-11-19T14:32:10.784Z,2.45
2017-11-19T14:34:38.313Z,2.85
2017-11-19T14:37:05.886Z,2.30
2017-11-19T14:39:33.454Z,2.80
2017-11-19T14:42:01.005Z,2.70
2017-11-19T14:44:28.542Z,2.20
2017-11-19T14:46:56.870Z,3.40
2017-11-19T14:49:24.430Z,1.90
2017-11-19T14:51:51.986Z,1.48
2017-11-19T14:54:19.544Z,2.45
2017-11-19T14:56:47.100Z,1.77
2017-11-19T14:59:14.648Z,1.75
2017-11-19T15:01:42.212Z,1.77
2017-11-19T15:04:09.749Z,2.15
2017-11-19T15:06:37.296Z,1.70
2017-11-19T15:09:04.844Z,3.10
2017-11-19T15:11:33.155Z,5.10
2017-11-19T15:14:00.735Z,5.65
2017-11-19T15:16:28.279Z,2.00
2017-11-19T15:18:55.860Z,2.03
2017-11-19T15:21:23.407Z,1.75
2017-11-19T15:23:50.970Z,2.53
2017-11-19T15:26:18.493Z,1.35
2017-11-19T15:28:46.032Z,1.75
2017-11-19T15:31:14.370Z,1.42
2017-11-19T15:33:41.943Z,2.00
2017-11-19T15:36:09.502Z,2.58
2017-11-19T15:38:37.059Z,2.28
2017-11-19T15:41:04.653Z,2.03
2017-11-19T15:43:32.971Z,2.60
2017-11-19T15:46:00.555Z,2.90
2017-11-19T15:48:28.091Z,3.53
2017-11-19T15:50:55.682Z,3.67
2017-11-19T15:53:23.223Z,4.40
2017-11-19T15:55:52.424Z,3.85
2017-11-19T15:58:20.067Z,2.47
2017-11-19T16:00:47.615Z,3.58
2017-11-19T16:03:15.293Z,2.95
2017-11-19T16:05:42.835Z,2.83
2017-11-19T16:08:10.419Z,2.60
2017-11-19T16:10:37.944Z,2.60
2017-11-19T16:13:05.511Z,2.33
2017-11-19T16:15:33.055Z,2.78
2017-11-19T16:18:00.617Z,4.43
2017-11-19T16:20:28.180Z,3.50
2017-11-19T16:22:55.783Z,2.75
2017-11-19T16:25:23.336Z,4.10
2017-11-19T16:27:50.901Z,11.12
2017-11-19T16:30:18.472Z,5.70
2017-11-19T16:32:46.779Z,6.25
2017-11-19T16:35:15.192Z,3.50
2017-11-19T16:37:42.747Z,3.35
2017-11-19T16:40:10.297Z,3.85
2017-11-19T16:42:37.856Z,2.95
2017-11-19T16:45:05.530Z,2.87
2017-11-19T16:47:33.099Z,4.35
2017-11-19T16:50:00.625Z,2.97
2017-11-19T16:52:28.206Z,2.78
2017-11-19T16:54:55.778Z,3.08
2017-11-19T16:57:23.320Z,2.60
2017-11-19T16:59:50.899Z,3.75
2017-11-19T17:02:18.458Z,2.95
2017-11-19T17:04:46.050Z,3.17
2017-11-19T17:07:13.621Z,3.90
2017-11-19T17:09:41.958Z,2.60
2017-11-19T17:12:09.541Z,2.75
2017-11-19T17:14:37.369Z,2.70
2017-11-19T17:17:04.939Z,3.00
2017-11-19T17:19:32.526Z,4.03
2017-11-19T17:22:00.111Z,3.08
2017-11-19T17:24:27.644Z,2.75
2017-11-19T17:26:55.187Z,3.50
2017-11-19T17:29:22.747Z,3.50
2017-11-19T17:31:50.386Z,4.55
2017-11-19T17:34:17.953Z,3.83
2017-11-19T17:36:47.459Z,2.80
2017-11-19T17:39:15.015Z,3.72
2017-11-19T17:41:42.602Z,4.20
2017-11-19T17:44:10.169Z,3.58
2017-11-19T17:46:37.733Z,3.60
2017-11-19T17:49:05.303Z,3.72
2017-11-19T17:51:33.625Z,3.35
2017-11-19T17:54:01.211Z,3.55
2017-11-19T17:56:28.751Z,3.87
2017-11-19T17:58:56.306Z,3.83
2017-11-19T18:01:23.875Z,2.83
2017-11-19T18:03:51.439Z,2.95
2017-11-19T18:06:18.993Z,3.45
2017-11-19T18:08:46.537Z,2.90
2017-11-19T18:11:14.125Z,3.53
2017-11-19T18:13:41.666Z,3.65
2017-11-19T18:16:09.244Z,3.70
2017-11-19T18:18:36.788Z,3.30
2017-11-19T18:21:04.338Z,3.33
2017-11-19T18:23:31.972Z,3.00
2017-11-19T18:26:00.272Z,2.62
2017-11-19T18:28:27.839Z,3.70
2017-11-19T18:30:55.391Z,4.18
2017-11-19T18:33:22.970Z,4.07
2017-11-19T18:35:50.612Z,3.55
2017-11-19T18:38:18.152Z,3.42
2017-11-19T18:40:45.727Z,2.50
2017-11-19T18:43:13.281Z,3.08
2017-11-19T18:45:40.863Z,4.30
2017-11-19T18:48:08.426Z,4.28
2017-11-19T18:50:35.999Z,3.30
2017-11-19T18:53:03.565Z,3.92
2017-11-19T18:55:31.126Z,2.28
2017-11-19T18:57:58.740Z,3.47
2017-11-19T19:00:26.317Z,3.92
2017-11-19T19:02:53.878Z,3.58
2017-11-19T19:05:21.461Z,3.92
2017-11-19T19:07:49.815Z,2.60
2017-11-19T19:10:17.354Z,3.10
2017-11-19T19:12:45.124Z,3.90
2017-11-19T19:15:12.813Z,3.20
2017-11-19T19:17:40.408Z,5.15
2017-11-19T19:20:08.791Z,3.83
2017-11-19T19:22:37.147Z,2.60
2017-11-19T19:25:04.681Z,4.70
2017-11-19T19:27:32.239Z,3.10
2017-11-19T19:29:59.802Z,3.25
2017-11-19T19:32:27.363Z,5.00
2017-11-19T19:34:55.152Z,3.28
2017-11-19T19:37:22.741Z,3.05
2017-11-19T19:39:50.313Z,3.17
2017-11-19T19:42:17.879Z,2.75
2017-11-19T19:44:45.545Z,3.03
2017-11-19T19:47:13.176Z,2.55
2017-11-19T19:49:40.970Z,2.95
2017-11-19T19:52:08.537Z,2.95
2017-11-19T19:54:36.117Z,2.42
2017-11-19T19:57:03.690Z,3.67
2017-11-19T19:59:32.017Z,3.60
2017-11-19T20:01:59.579Z,2.75
2017-11-19T20:04:27.137Z,2.90
2017-11-19T20:06:54.722Z,3.80
2017-11-19T20:09:22.272Z,3.30
2017-11-19T20:11:49.926Z,3.12
2017-11-19T20:14:17.468Z,3.00
2017-11-19T20:16:45.019Z,4.25
2017-11-19T20:19:12.640Z,2.92
2017-11-19T20:21:40.950Z,2.75
2017-11-19T20:24:09.262Z,2.20
2017-11-19T20:26:36.785Z,4.00
2017-11-19T20:29:05.146Z,2.90
2017-11-19T20:31:33.448Z,3.62
2017-11-19T20:34:01.004Z,3.03
2017-11-19T20:36:28.561Z,2.72
2017-11-19T20:38:56.117Z,3.67
2017-11-19T20:41:24.439Z,4.05
2017-11-19T20:43:51.964Z,3.67
2017-11-19T20:46:19.517Z,2.87
2017-11-19T20:48:47.046Z,4.53
2017-11-19T20:51:14.967Z,4.47
2017-11-19T20:53:42.578Z,4.25
2017-11-19T20:56:10.945Z,4.35
2017-11-19T20:58:38.525Z,3.95
2017-11-19T21:01:06.849Z,4.40
2017-11-19T21:03:34.415Z,4.78
2017-11-19T21:06:01.983Z,3.60
2017-11-19T21:08:29.526Z,4.22
2017-11-19T21:10:57.067Z,4.55
2017-11-19T21:13:24.643Z,4.10
2017-11-19T21:15:52.224Z,3.92
2017-11-19T21:18:19.750Z,3.40
2017-11-19T21:20:47.307Z,3.55
2017-11-19T21:23:14.871Z,3.53
2017-11-19T21:25:42.444Z,5.85
2017-11-19T21:28:09.973Z,5.00
2017-11-19T21:30:37.512Z,3.53
2017-11-19T21:33:05.933Z,4.07
2017-11-19T21:35:33.601Z,5.10
2017-11-19T21:38:01.160Z,4.00
2017-11-19T21:40:28.714Z,4.62
2017-11-19T21:42:56.267Z,4.47
2017-11-19T21:45:23.828Z,3.58
2017-11-19T21:47:51.401Z,3.45
2017-11-19T21:50:18.960Z,4.28
2017-11-19T21:52:46.534Z,4.00
2017-11-19T21:55:14.061Z,5.00
2017-11-19T21:57:41.604Z,3.90
2017-11-19T22:00:09.132Z,4.45
2017-11-19T22:02:36.676Z,3.25
2017-11-19T22:05:04.215Z,3.55
2017-11-19T22:07:31.770Z,3.92
2017-11-19T22:09:59.321Z,4.20
2017-11-19T22:12:26.864Z,4.12
2017-11-19T22:14:54.418Z,3.10
2017-11-19T22:17:21.973Z,4.50
2017-11-19T22:19:49.553Z,4.30
2017-11-19T22:22:17.080Z,4.20
2017-11-19T22:24:45.425Z,4.37
2017-11-19T22:27:12.963Z,3.85
2017-11-19T22:29:40.512Z,6.03
2017-11-19T22:32:08.056Z,3.45
2017-11-19T22:34:35.627Z,3.90
2017-11-19T22:37:03.171Z,4.72
2017-11-19T22:39:30.712Z,4.55
2017-11-19T22:41:59.005Z,4.10
2017-11-19T22:44:26.556Z,4.30
2017-11-19T22:46:54.081Z,4.43
2017-11-19T22:49:21.631Z,3.80
2017-11-19T22:51:50.821Z,3.58
2017-11-19T22:54:18.343Z,4.10
2017-11-19T22:56:45.884Z,4.10
2017-11-19T22:59:14.172Z,4.32
2017-11-19T23:01:41.707Z,5.55
2017-11-19T23:04:10.026Z,3.83
2017-11-19T23:06:37.895Z,3.33
2017-11-19T23:09:05.872Z,5.47
2017-11-19T23:11:33.831Z,4.40
2017-11-19T23:14:01.695Z,4.62
2017-11-19T23:16:29.673Z,4.95
2017-11-19T23:18:57.735Z,4.50
2017-11-19T23:21:25.502Z,4.78
2017-11-19T23:23:53.365Z,5.37
2017-11-19T23:26:20.991Z,4.30
2017-11-19T23:28:48.689Z,5.70
2017-11-19T23:31:16.555Z,6.03
2017-11-19T23:33:44.425Z,5.70
2017-11-19T23:36:12.389Z,5.70
2017-11-19T23:38:39.930Z,6.78
2017-11-19T23:41:07.486Z,6.35
2017-11-19T23:43:35.041Z,7.15
2017-11-19T23:46:02.599Z,6.30
2017-11-19T23:48:30.129Z,6.78
2017-11-19T23:50:57.669Z,6.45
2017-11-19T23:53:25.207Z,7.60
2017-11-19T23:55:52.773Z,7.07
2017-11-19T23:58:20.297Z,6.47
